PWSweather.com
Personal Weather Stations
Station Observations

ChardChardGB

Lat: 50.877408, Lon: -2.94964741

Elevation: 341

Station Type: WS3083

http://www.merriott-astro.co.uk/weather/index.htm

High Low Average
Temperature 54.5°F12.5°C 43.3°F6.3°C 50.3°F10.2°C
Dew Point 45.4°F7.4°C 36.0°F2.2°C 42.5°F5.8°C
Winds 18.6 mph 29.9 kmh 5.0 mph 8.0 kmh 11.0 mph SW17.7 kmh SW
Wind Gusts 29.8 mph48.0 kmh 7.6 mph12.2 kmh 16.0 mph25.7 kmh
Humidity 84% 62% 75%
Pressure 29.57 in1001.4 mb 29.13 in986.5 mb -
Precipitation 0.31 in7.9 mm - -
Hour Temp Dew Point Humidity Winds Wind Gusts Pressure Precip Precip Rate Daily Precip Total
12:00 AM 51.6°F10.9°C 44.3°F6.8°C 76% 7.9 mph SW12.7 kmh SW 13.0 mph20.9 kmh 29.57 in1001.4 mb 0.00 in0.0 mm 0.00 in0.0 mm 0.00 in0.0 mm
12:10 AM 51.6°F10.9°C 44.3°F6.8°C 76% 8.9 mph SW14.3 kmh SW 13.0 mph20.9 kmh 29.57 in1001.4 mb 0.00 in0.0 mm 0.00 in0.0 mm 0.00 in0.0 mm
12:20 AM 51.4°F10.8°C 44.1°F6.7°C 76% 8.7 mph W14.0 kmh W 13.0 mph20.9 kmh 29.57 in1001.4 mb 0.00 in0.0 mm 0.00 in0.0 mm 0.00 in0.0 mm
12:30 AM 51.3°F10.7°C 44.0°F6.7°C 76% 8.7 mph SSW14.0 kmh SSW 14.5 mph23.3 kmh 29.56 in1001.0 mb 0.00 in0.0 mm 0.00 in0.0 mm 0.00 in0.0 mm
12:40 AM 51.4°F10.8°C 44.1°F6.7°C 76% 6.8 mph W10.9 kmh W 9.8 mph15.8 kmh 29.56 in1001.0 mb 0.00 in0.0 mm 0.00 in0.0 mm 0.00 in0.0 mm
12:50 AM 51.4°F10.8°C 43.8°F6.6°C 75% 7.8 mph S12.6 kmh S 12.1 mph19.5 kmh 29.56 in1001.0 mb 0.00 in0.0 mm 0.00 in0.0 mm 0.00 in0.0 mm
01:00 AM 51.3°F10.7°C 44.0°F6.7°C 76% 8.8 mph SSW14.2 kmh SSW 12.1 mph19.5 kmh 29.56 in1001.0 mb 0.00 in0.0 mm 0.00 in0.0 mm 0.00 in0.0 mm
01:10 AM 51.3°F10.7°C 44.0°F6.7°C 76% 9.2 mph SW14.8 kmh SW 13.6 mph21.9 kmh 29.56 in1001.0 mb 0.00 in0.0 mm 0.00 in0.0 mm 0.00 in0.0 mm
01:20 AM 51.1°F10.6°C 43.8°F6.6°C 76% 8.2 mph SSW13.2 kmh SSW 13.6 mph21.9 kmh 29.55 in1000.7 mb 0.00 in0.0 mm 0.00 in0.0 mm 0.00 in0.0 mm
01:30 AM 51.1°F10.6°C 43.4°F6.3°C 75% 7.1 mph WSW11.4 kmh WSW 12.1 mph19.5 kmh 29.55 in1000.7 mb 0.00 in0.0 mm 0.00 in0.0 mm 0.00 in0.0 mm
01:40 AM 51.1°F10.6°C 43.4°F6.3°C 75% 7.9 mph WSW12.7 kmh WSW 12.1 mph19.5 kmh 29.54 in1000.3 mb 0.00 in0.0 mm 0.00 in0.0 mm 0.00 in0.0 mm
01:50 AM 51.1°F10.6°C 43.4°F6.3°C 75% 8.8 mph S14.2 kmh S 10.7 mph17.2 kmh 29.54 in1000.3 mb 0.00 in0.0 mm 0.00 in0.0 mm 0.00 in0.0 mm
02:00 AM 51.1°F10.6°C 43.4°F6.3°C 75% 9.6 mph SW15.4 kmh SW 16.8 mph27.0 kmh 29.53 in1000.0 mb 0.00 in0.0 mm 0.00 in0.0 mm 0.00 in0.0 mm
02:10 AM 51.3°F10.7°C 43.6°F6.4°C 75% 9.8 mph SW15.8 kmh SW 13.6 mph21.9 kmh 29.53 in1000.0 mb 0.00 in0.0 mm 0.00 in0.0 mm 0.00 in0.0 mm
02:20 AM 51.3°F10.7°C 43.6°F6.4°C 75% 10.5 mph SW16.9 kmh SW 14.5 mph23.3 kmh 29.52 in999.7 mb 0.00 in0.0 mm 0.00 in0.0 mm 0.00 in0.0 mm
02:30 AM 51.4°F10.8°C 43.8°F6.6°C 75% 10.3 mph SW16.6 kmh SW 13.6 mph21.9 kmh 29.52 in999.7 mb 0.00 in0.0 mm 0.00 in0.0 mm 0.00 in0.0 mm
02:40 AM 51.4°F10.8°C 43.8°F6.6°C 75% 10.0 mph SSW16.1 kmh SSW 12.1 mph19.5 kmh 29.51 in999.3 mb 0.00 in0.0 mm 0.00 in0.0 mm 0.00 in0.0 mm
02:50 AM 51.4°F10.8°C 43.8°F6.6°C 75% 9.8 mph SW15.8 kmh SW 15.9 mph25.6 kmh 29.51 in999.3 mb 0.00 in0.0 mm 0.00 in0.0 mm 0.00 in0.0 mm
03:00 AM 51.4°F10.8°C 43.8°F6.6°C 75% 11.5 mph S18.5 kmh S 17.4 mph28.0 kmh 29.50 in999.0 mb 0.00 in0.0 mm 0.00 in0.0 mm 0.00 in0.0 mm
03:10 AM 51.4°F10.8°C 44.1°F6.7°C 76% 10.3 mph SW16.6 kmh SW 13.6 mph21.9 kmh 29.51 in999.3 mb 0.00 in0.0 mm 0.00 in0.0 mm 0.00 in0.0 mm
03:20 AM 51.4°F10.8°C 44.1°F6.7°C 76% 9.3 mph S15.0 kmh S 15.2 mph24.5 kmh 29.51 in999.3 mb 0.00 in0.0 mm 0.00 in0.0 mm 0.00 in0.0 mm
03:30 AM 51.4°F10.8°C 43.8°F6.6°C 75% 8.3 mph WSW13.4 kmh WSW 11.4 mph18.3 kmh 29.50 in999.0 mb 0.00 in0.0 mm 0.00 in0.0 mm 0.00 in0.0 mm
03:40 AM 51.4°F10.8°C 43.8°F6.6°C 75% 9.0 mph SW14.5 kmh SW 11.4 mph18.3 kmh 29.50 in999.0 mb 0.00 in0.0 mm 0.00 in0.0 mm 0.00 in0.0 mm
03:50 AM 51.4°F10.8°C 43.8°F6.6°C 75% 8.9 mph S14.3 kmh S 14.5 mph23.3 kmh 29.50 in999.0 mb 0.00 in0.0 mm 0.00 in0.0 mm 0.00 in0.0 mm
04:00 AM 51.4°F10.8°C 43.4°F6.3°C 74% 9.4 mph SW15.1 kmh SW 14.5 mph23.3 kmh 29.49 in998.6 mb 0.00 in0.0 mm 0.00 in0.0 mm 0.00 in0.0 mm
04:10 AM 51.4°F10.8°C 43.4°F6.3°C 74% 10.5 mph SW16.9 kmh SW 14.5 mph23.3 kmh 29.49 in998.6 mb 0.00 in0.0 mm 0.00 in0.0 mm 0.00 in0.0 mm
04:20 AM 51.3°F10.7°C 43.3°F6.3°C 74% 10.3 mph WSW16.6 kmh WSW 20.6 mph33.2 kmh 29.49 in998.6 mb 0.00 in0.0 mm 0.00 in0.0 mm 0.00 in0.0 mm
04:30 AM 51.3°F10.7°C 43.3°F6.3°C 74% 10.9 mph SSW17.5 kmh SSW 13.0 mph20.9 kmh 29.50 in999.0 mb 0.00 in0.0 mm 0.00 in0.0 mm 0.00 in0.0 mm
04:40 AM 51.3°F10.7°C 43.3°F6.3°C 74% 10.3 mph S16.6 kmh S 13.6 mph21.9 kmh 29.49 in998.6 mb 0.00 in0.0 mm 0.00 in0.0 mm 0.00 in0.0 mm
04:50 AM 51.1°F10.6°C 43.1°F6.2°C 74% 11.1 mph SW17.9 kmh SW 14.5 mph23.3 kmh 29.48 in998.3 mb 0.00 in0.0 mm 0.00 in0.0 mm 0.00 in0.0 mm
05:00 AM 51.3°F10.7°C 43.3°F6.3°C 74% 9.6 mph SW15.4 kmh SW 13.0 mph20.9 kmh 29.47 in998.0 mb 0.00 in0.0 mm 0.00 in0.0 mm 0.00 in0.0 mm
05:10 AM 51.1°F10.6°C 43.4°F6.3°C 75% 13.4 mph S21.6 kmh S 19.7 mph31.7 kmh 29.47 in998.0 mb 0.00 in0.0 mm 0.00 in0.0 mm 0.00 in0.0 mm
05:20 AM 51.1°F10.6°C 43.4°F6.3°C 75% 9.1 mph SW14.6 kmh SW 12.1 mph19.5 kmh 29.47 in998.0 mb 0.00 in0.0 mm 0.00 in0.0 mm 0.00 in0.0 mm
05:30 AM 51.3°F10.7°C 43.6°F6.4°C 75% 10.3 mph WSW16.6 kmh WSW 13.0 mph20.9 kmh 29.46 in997.6 mb 0.00 in0.0 mm 0.00 in0.0 mm 0.00 in0.0 mm
05:40 AM 51.1°F10.6°C 43.1°F6.2°C 74% 10.6 mph SW17.1 kmh SW 18.3 mph29.5 kmh 29.46 in997.6 mb 0.00 in0.0 mm 0.00 in0.0 mm 0.00 in0.0 mm
05:50 AM 51.1°F10.6°C 43.4°F6.3°C 75% 10.5 mph SSW16.9 kmh SSW 14.5 mph23.3 kmh 29.45 in997.3 mb 0.00 in0.0 mm 0.00 in0.0 mm 0.00 in0.0 mm
06:00 AM 51.1°F10.6°C 43.1°F6.2°C 74% 11.2 mph WSW18.0 kmh WSW 14.5 mph23.3 kmh 29.45 in997.3 mb 0.00 in0.0 mm 0.00 in0.0 mm 0.00 in0.0 mm
06:10 AM 51.1°F10.6°C 42.7°F5.9°C 73% 10.8 mph SSW17.4 kmh SSW 13.6 mph21.9 kmh 29.45 in997.3 mb 0.00 in0.0 mm 0.00 in0.0 mm 0.00 in0.0 mm
06:20 AM 50.9°F10.5°C 42.6°F5.9°C 73% 13.6 mph S21.9 kmh S 22.8 mph36.7 kmh 29.44 in997.0 mb 0.00 in0.0 mm 0.00 in0.0 mm 0.00 in0.0 mm
06:30 AM 50.9°F10.5°C 42.2°F5.7°C 72% 12.8 mph SW20.6 kmh SW 17.4 mph28.0 kmh 29.44 in997.0 mb 0.00 in0.0 mm 0.00 in0.0 mm 0.00 in0.0 mm
06:40 AM 50.9°F10.5°C 41.8°F5.4°C 71% 13.4 mph S21.6 kmh S 20.6 mph33.2 kmh 29.44 in997.0 mb 0.00 in0.0 mm 0.00 in0.0 mm 0.00 in0.0 mm
06:50 AM 51.1°F10.6°C 42.0°F5.6°C 71% 15.0 mph WSW24.1 kmh WSW 22.8 mph36.7 kmh 29.45 in997.3 mb 0.00 in0.0 mm 0.00 in0.0 mm 0.00 in0.0 mm
07:00 AM 50.7°F10.4°C 41.7°F5.4°C 71% 12.7 mph SW20.4 kmh SW 16.8 mph27.0 kmh 29.45 in997.3 mb 0.00 in0.0 mm 0.00 in0.0 mm 0.00 in0.0 mm
07:10 AM 50.7°F10.4°C 41.7°F5.4°C 71% 12.2 mph SW19.6 kmh SW 15.2 mph24.5 kmh 29.44 in997.0 mb 0.00 in0.0 mm 0.00 in0.0 mm 0.00 in0.0 mm
07:20 AM 50.7°F10.4°C 41.7°F5.4°C 71% 11.3 mph SSW18.2 kmh SSW 16.8 mph27.0 kmh 29.44 in997.0 mb 0.00 in0.0 mm 0.00 in0.0 mm 0.00 in0.0 mm
07:30 AM 50.5°F10.3°C 41.9°F5.5°C 72% 9.9 mph WSW15.9 kmh WSW 15.2 mph24.5 kmh 29.43 in996.6 mb 0.00 in0.0 mm 0.00 in0.0 mm 0.00 in0.0 mm
07:40 AM 50.5°F10.3°C 41.9°F5.5°C 72% 9.6 mph WSW15.4 kmh WSW 14.5 mph23.3 kmh 29.43 in996.6 mb 0.00 in0.0 mm 0.00 in0.0 mm 0.00 in0.0 mm
07:50 AM 50.9°F10.5°C 41.8°F5.4°C 71% 11.5 mph SW18.5 kmh SW 17.4 mph28.0 kmh 29.44 in997.0 mb 0.00 in0.0 mm 0.00 in0.0 mm 0.00 in0.0 mm
08:00 AM 50.7°F10.4°C 42.0°F5.6°C 72% 9.0 mph SW14.5 kmh SW 13.0 mph20.9 kmh 29.43 in996.6 mb 0.00 in0.0 mm 0.00 in0.0 mm 0.00 in0.0 mm
08:10 AM 50.2°F10.1°C 42.6°F5.9°C 75% 9.7 mph SW15.6 kmh SW 13.0 mph20.9 kmh 29.42 in996.3 mb 0.00 in0.0 mm 0.00 in0.0 mm 0.00 in0.0 mm
08:20 AM 50.2°F10.1°C 42.6°F5.9°C 75% 11.9 mph SW19.2 kmh SW 19.7 mph31.7 kmh 29.42 in996.3 mb 0.00 in0.0 mm 0.00 in0.0 mm 0.00 in0.0 mm
08:30 AM 50.5°F10.3°C 41.9°F5.5°C 72% 13.1 mph SW21.1 kmh SW 21.3 mph34.3 kmh 29.42 in996.3 mb 0.00 in0.0 mm 0.00 in0.0 mm 0.00 in0.0 mm
08:40 AM 50.7°F10.4°C 41.7°F5.4°C 71% 12.6 mph SW20.3 kmh SW 17.4 mph28.0 kmh 29.43 in996.6 mb 0.00 in0.0 mm 0.00 in0.0 mm 0.00 in0.0 mm
08:50 AM 50.9°F10.5°C 41.8°F5.4°C 71% 11.5 mph SW18.5 kmh SW 18.3 mph29.5 kmh 29.42 in996.3 mb 0.00 in0.0 mm 0.00 in0.0 mm 0.00 in0.0 mm
09:00 AM 51.3°F10.7°C 41.8°F5.4°C 70% 11.5 mph WSW18.5 kmh WSW 15.9 mph25.6 kmh 29.42 in996.3 mb 0.00 in0.0 mm 0.00 in0.0 mm 0.00 in0.0 mm
09:10 AM 51.4°F10.8°C 42.0°F5.6°C 70% 11.5 mph SSW18.5 kmh SSW 16.8 mph27.0 kmh 29.42 in996.3 mb 0.00 in0.0 mm 0.00 in0.0 mm 0.00 in0.0 mm
09:20 AM 51.6°F10.9°C 42.2°F5.7°C 70% 9.4 mph SW15.1 kmh SW 13.6 mph21.9 kmh 29.41 in995.9 mb 0.00 in0.0 mm 0.00 in0.0 mm 0.00 in0.0 mm
09:30 AM 51.8°F11.0°C 42.3°F5.7°C 70% 10.4 mph WSW16.7 kmh WSW 15.2 mph24.5 kmh 29.41 in995.9 mb 0.00 in0.0 mm 0.00 in0.0 mm 0.00 in0.0 mm
09:40 AM 51.6°F10.9°C 42.9°F6.1°C 72% 7.5 mph SW12.1 kmh SW 11.4 mph18.3 kmh 29.41 in995.9 mb 0.00 in0.0 mm 0.00 in0.0 mm 0.00 in0.0 mm
09:50 AM 52.0°F11.1°C 42.9°F6.1°C 71% 8.6 mph SSW13.8 kmh SSW 17.4 mph28.0 kmh 29.40 in995.6 mb 0.00 in0.0 mm 0.00 in0.0 mm 0.00 in0.0 mm
10:00 AM 52.0°F11.1°C 42.5°F5.8°C 70% 10.6 mph SSW17.1 kmh SSW 19.0 mph30.6 kmh 29.40 in995.6 mb 0.00 in0.0 mm 0.00 in0.0 mm 0.00 in0.0 mm
10:10 AM 51.8°F11.0°C 42.7°F5.9°C 71% 12.4 mph WSW20.0 kmh WSW 19.7 mph31.7 kmh 29.40 in995.6 mb 0.00 in0.0 mm 0.00 in0.0 mm 0.00 in0.0 mm
10:20 AM 52.3°F11.3°C 42.9°F6.1°C 70% 10.6 mph SW17.1 kmh SW 20.6 mph33.2 kmh 29.39 in995.3 mb 0.00 in0.0 mm 0.00 in0.0 mm 0.00 in0.0 mm
10:30 AM 52.2°F11.2°C 42.7°F5.9°C 70% 11.3 mph SW18.2 kmh SW 17.4 mph28.0 kmh 29.39 in995.3 mb 0.00 in0.0 mm 0.00 in0.0 mm 0.00 in0.0 mm
10:40 AM 52.2°F11.2°C 42.7°F5.9°C 70% 12.9 mph SSW20.8 kmh SSW 17.4 mph28.0 kmh 29.39 in995.3 mb 0.00 in0.0 mm 0.00 in0.0 mm 0.00 in0.0 mm
10:50 AM 52.3°F11.3°C 42.5°F5.8°C 69% 12.9 mph S20.8 kmh S 23.5 mph37.8 kmh 29.38 in994.9 mb 0.00 in0.0 mm 0.00 in0.0 mm 0.00 in0.0 mm
11:00 AM 52.2°F11.2°C 42.3°F5.7°C 69% 13.4 mph SW21.6 kmh SW 19.0 mph30.6 kmh 29.38 in994.9 mb 0.00 in0.0 mm 0.00 in0.0 mm 0.00 in0.0 mm
11:10 AM 52.3°F11.3°C 42.5°F5.8°C 69% 12.1 mph SW19.5 kmh SW 22.1 mph35.6 kmh 29.37 in994.6 mb 0.00 in0.0 mm 0.00 in0.0 mm 0.00 in0.0 mm
11:20 AM 52.7°F11.5°C 42.4°F5.8°C 68% 11.0 mph SSW17.7 kmh SSW 15.2 mph24.5 kmh 29.36 in994.2 mb 0.00 in0.0 mm 0.00 in0.0 mm 0.00 in0.0 mm
11:30 AM 52.7°F11.5°C 42.8°F6.0°C 69% 14.6 mph WSW23.5 kmh WSW 21.3 mph34.3 kmh 29.36 in994.2 mb 0.00 in0.0 mm 0.00 in0.0 mm 0.00 in0.0 mm
11:40 AM 52.9°F11.6°C 42.6°F5.9°C 68% 14.1 mph SW22.7 kmh SW 19.7 mph31.7 kmh 29.35 in993.9 mb 0.00 in0.0 mm 0.00 in0.0 mm 0.00 in0.0 mm
11:50 AM 53.2°F11.8°C 42.6°F5.9°C 67% 14.2 mph SSW22.9 kmh SSW 19.7 mph31.7 kmh 29.34 in993.6 mb 0.00 in0.0 mm 0.00 in0.0 mm 0.00 in0.0 mm
12:00 PM 53.2°F11.8°C 43.0°F6.1°C 68% 13.1 mph SE21.1 kmh SE 18.3 mph29.5 kmh 29.33 in993.2 mb 0.00 in0.0 mm 0.00 in0.0 mm 0.00 in0.0 mm
12:10 PM 53.8°F12.1°C 44.2°F6.8°C 70% 12.7 mph W20.4 kmh W 15.2 mph24.5 kmh 29.34 in993.6 mb 0.00 in0.0 mm 0.00 in0.0 mm 0.00 in0.0 mm
12:20 PM 54.1°F12.3°C 43.0°F6.1°C 66% 13.2 mph SW21.2 kmh SW 19.0 mph30.6 kmh 29.32 in992.9 mb 0.00 in0.0 mm 0.00 in0.0 mm 0.00 in0.0 mm
12:30 PM 54.5°F12.5°C 41.8°F5.4°C 62% 15.3 mph SW24.6 kmh SW 26.6 mph42.8 kmh 29.32 in992.9 mb 0.00 in0.0 mm 0.00 in0.0 mm 0.00 in0.0 mm
12:40 PM 54.3°F12.4°C 42.8°F6.0°C 65% 17.0 mph SW27.4 kmh SW 28.2 mph45.4 kmh 29.31 in992.6 mb 0.00 in0.0 mm 0.00 in0.0 mm 0.00 in0.0 mm
12:50 PM 54.1°F12.3°C 42.6°F5.9°C 65% 14.8 mph SW23.8 kmh SW 17.4 mph28.0 kmh 29.30 in992.2 mb 0.00 in0.0 mm 0.00 in0.0 mm 0.00 in0.0 mm
01:00 PM 54.0°F12.2°C 43.3°F6.3°C 67% 12.5 mph SW20.1 kmh SW 21.3 mph34.3 kmh 29.29 in991.9 mb 0.00 in0.0 mm 0.00 in0.0 mm 0.00 in0.0 mm
01:10 PM 53.6°F12.0°C 43.3°F6.3°C 68% 17.5 mph WSW28.2 kmh WSW 28.2 mph45.4 kmh 29.30 in992.2 mb 0.01 in0.3 mm 0.06 in1.5 mm 0.01 in0.3 mm
01:20 PM 52.5°F11.4°C 43.0°F6.1°C 70% 14.9 mph SW24.0 kmh SW 19.0 mph30.6 kmh 29.29 in991.9 mb 0.01 in0.3 mm 0.00 in0.0 mm 0.01 in0.3 mm
01:30 PM 52.9°F11.6°C 43.4°F6.3°C 70% 14.7 mph SSW23.7 kmh SSW 20.6 mph33.2 kmh 29.28 in991.5 mb 0.01 in0.3 mm 0.00 in0.0 mm 0.01 in0.3 mm
01:40 PM 53.1°F11.7°C 42.8°F6.0°C 68% 14.9 mph SW24.0 kmh SW 29.8 mph48.0 kmh 29.28 in991.5 mb 0.01 in0.3 mm 0.00 in0.0 mm 0.01 in0.3 mm
01:50 PM 52.3°F11.3°C 42.9°F6.1°C 70% 13.3 mph SW21.4 kmh SW 18.3 mph29.5 kmh 29.28 in991.5 mb 0.01 in0.3 mm 0.00 in0.0 mm 0.01 in0.3 mm
02:00 PM 52.2°F11.2°C 42.7°F5.9°C 70% 12.7 mph WSW20.4 kmh WSW 18.3 mph29.5 kmh 29.28 in991.5 mb 0.00 in0.0 mm 0.00 in0.0 mm 0.01 in0.3 mm
02:10 PM 52.2°F11.2°C 42.7°F5.9°C 70% 15.6 mph SW25.1 kmh SW 24.4 mph39.3 kmh 29.27 in991.2 mb 0.00 in0.0 mm 0.00 in0.0 mm 0.01 in0.3 mm
02:20 PM 52.0°F11.1°C 42.5°F5.8°C 70% 13.4 mph SW21.6 kmh SW 21.3 mph34.3 kmh 29.27 in991.2 mb 0.00 in0.0 mm 0.00 in0.0 mm 0.01 in0.3 mm
02:30 PM 52.0°F11.1°C 42.5°F5.8°C 70% 14.2 mph SW22.9 kmh SW 23.5 mph37.8 kmh 29.25 in990.5 mb 0.00 in0.0 mm 0.00 in0.0 mm 0.01 in0.3 mm
02:40 PM 52.2°F11.2°C 42.7°F5.9°C 70% 11.1 mph ESE17.9 kmh ESE 16.8 mph27.0 kmh 29.25 in990.5 mb 0.00 in0.0 mm 0.00 in0.0 mm 0.01 in0.3 mm
02:50 PM 51.8°F11.0°C 42.3°F5.7°C 70% 16.1 mph S25.9 kmh S 25.9 mph41.7 kmh 29.24 in990.2 mb 0.00 in0.0 mm 0.00 in0.0 mm 0.01 in0.3 mm
03:00 PM 52.0°F11.1°C 42.5°F5.8°C 70% 11.3 mph SW18.2 kmh SW 15.9 mph25.6 kmh 29.24 in990.2 mb 0.00 in0.0 mm 0.00 in0.0 mm 0.01 in0.3 mm
03:10 PM 51.8°F11.0°C 42.7°F5.9°C 71% 13.5 mph SW21.7 kmh SW 20.6 mph33.2 kmh 29.23 in989.8 mb 0.00 in0.0 mm 0.00 in0.0 mm 0.01 in0.3 mm
03:20 PM 51.3°F10.7°C 42.6°F5.9°C 72% 16.8 mph SSW27.0 kmh SSW 23.5 mph37.8 kmh 29.21 in989.2 mb 0.00 in0.0 mm 0.00 in0.0 mm 0.01 in0.3 mm
03:30 PM 51.1°F10.6°C 43.1°F6.2°C 74% 16.4 mph S26.4 kmh S 24.4 mph39.3 kmh 29.21 in989.2 mb 0.00 in0.0 mm 0.00 in0.0 mm 0.01 in0.3 mm
03:40 PM 51.1°F10.6°C 43.1°F6.2°C 74% 13.8 mph SSW22.2 kmh SSW 18.3 mph29.5 kmh 29.21 in989.2 mb 0.05 in1.3 mm 0.30 in7.6 mm 0.06 in1.5 mm
03:50 PM 51.1°F10.6°C 43.1°F6.2°C 74% 13.0 mph SW20.9 kmh SW 18.3 mph29.5 kmh 29.20 in988.8 mb 0.05 in1.3 mm 0.00 in0.0 mm 0.06 in1.5 mm
04:00 PM 50.9°F10.5°C 42.9°F6.1°C 74% 15.3 mph SW24.6 kmh SW 23.5 mph37.8 kmh 29.20 in988.8 mb 0.05 in1.3 mm 0.00 in0.0 mm 0.06 in1.5 mm
04:10 PM 51.1°F10.6°C 43.1°F6.2°C 74% 18.6 mph SW29.9 kmh SW 28.9 mph46.5 kmh 29.19 in988.5 mb 0.07 in1.8 mm 0.12 in3.0 mm 0.08 in2.0 mm
04:20 PM 50.9°F10.5°C 43.3°F6.3°C 75% 14.6 mph S23.5 kmh S 22.8 mph36.7 kmh 29.18 in988.1 mb 0.07 in1.8 mm 0.00 in0.0 mm 0.08 in2.0 mm
04:30 PM 50.7°F10.4°C 43.4°F6.3°C 76% 14.8 mph SW23.8 kmh SW 19.7 mph31.7 kmh 29.18 in988.1 mb 0.07 in1.8 mm 0.00 in0.0 mm 0.08 in2.0 mm
04:40 PM 50.5°F10.3°C 43.3°F6.3°C 76% 15.9 mph SW25.6 kmh SW 23.5 mph37.8 kmh 29.18 in988.1 mb 0.02 in0.5 mm 0.00 in0.0 mm 0.08 in2.0 mm
04:50 PM 50.4°F10.2°C 43.8°F6.6°C 78% 14.7 mph SW23.7 kmh SW 19.7 mph31.7 kmh 29.17 in987.8 mb 0.02 in0.5 mm 0.00 in0.0 mm 0.08 in2.0 mm
05:00 PM 50.2°F10.1°C 43.9°F6.6°C 79% 12.5 mph WSW20.1 kmh WSW 23.5 mph37.8 kmh 29.16 in987.5 mb 0.13 in3.3 mm 0.13 in3.3 mm 0.19 in4.8 mm
05:10 PM 50.2°F10.1°C 44.3°F6.8°C 80% 16.4 mph SSW26.4 kmh SSW 23.5 mph37.8 kmh 29.16 in987.5 mb 0.11 in2.8 mm 0.00 in0.0 mm 0.19 in4.8 mm
05:20 PM 50.0°F10.0°C 44.4°F6.9°C 81% 15.1 mph SW24.3 kmh SW 22.1 mph35.6 kmh 29.16 in987.5 mb 0.11 in2.8 mm 0.00 in0.0 mm 0.19 in4.8 mm
05:30 PM 50.2°F10.1°C 44.6°F7.0°C 81% 16.2 mph S26.1 kmh S 24.4 mph39.3 kmh 29.14 in986.8 mb 0.11 in2.8 mm 0.00 in0.0 mm 0.19 in4.8 mm
05:40 PM 50.2°F10.1°C 44.6°F7.0°C 81% 14.5 mph S23.3 kmh S 24.4 mph39.3 kmh 29.14 in986.8 mb 0.11 in2.8 mm 0.00 in0.0 mm 0.19 in4.8 mm
05:50 PM 50.2°F10.1°C 44.6°F7.0°C 81% 14.4 mph SSW23.2 kmh SSW 22.1 mph35.6 kmh 29.14 in986.8 mb 0.11 in2.8 mm 0.00 in0.0 mm 0.19 in4.8 mm
06:00 PM 50.2°F10.1°C 44.6°F7.0°C 81% 14.8 mph SSW23.8 kmh SSW 19.7 mph31.7 kmh 29.14 in986.8 mb 0.00 in0.0 mm 0.00 in0.0 mm 0.19 in4.8 mm
06:10 PM 50.2°F10.1°C 44.9°F7.2°C 82% 15.6 mph SSW25.1 kmh SSW 20.6 mph33.2 kmh 29.13 in986.5 mb 0.00 in0.0 mm 0.00 in0.0 mm 0.19 in4.8 mm
06:20 PM 50.0°F10.0°C 44.7°F7.1°C 82% 9.8 mph S15.8 kmh S 18.3 mph29.5 kmh 29.13 in986.5 mb 0.01 in0.3 mm 0.06 in1.5 mm 0.20 in5.1 mm
06:30 PM 50.0°F10.0°C 45.0°F7.2°C 83% 12.2 mph WSW19.6 kmh WSW 15.9 mph25.6 kmh 29.13 in986.5 mb 0.02 in0.5 mm 0.06 in1.5 mm 0.21 in5.3 mm
06:40 PM 50.0°F10.0°C 45.0°F7.2°C 83% 10.7 mph SW17.2 kmh SW 16.8 mph27.0 kmh 29.14 in986.8 mb 0.04 in1.0 mm 0.12 in3.0 mm 0.22 in5.6 mm
06:50 PM 50.0°F10.0°C 45.4°F7.4°C 84% 7.6 mph WNW12.2 kmh WNW 13.0 mph20.9 kmh 29.14 in986.8 mb 0.06 in1.5 mm 0.12 in3.0 mm 0.25 in6.4 mm
07:00 PM 50.0°F10.0°C 45.4°F7.4°C 84% 7.1 mph WSW11.4 kmh WSW 10.7 mph17.2 kmh 29.14 in986.8 mb 0.08 in2.0 mm 0.02 in0.5 mm 0.27 in6.9 mm
07:10 PM 49.1°F9.5°C 44.5°F6.9°C 84% 8.4 mph NW13.5 kmh NW 12.1 mph19.5 kmh 29.16 in987.5 mb 0.11 in2.8 mm 0.18 in4.6 mm 0.30 in7.6 mm
07:20 PM 48.0°F8.9°C 43.1°F6.2°C 83% 9.0 mph W14.5 kmh W 11.4 mph18.3 kmh 29.16 in987.5 mb 0.09 in2.3 mm 0.00 in0.0 mm 0.30 in7.6 mm
07:30 PM 47.7°F8.7°C 42.4°F5.8°C 82% 8.6 mph SSE13.8 kmh SSE 12.1 mph19.5 kmh 29.16 in987.5 mb 0.08 in2.0 mm 0.00 in0.0 mm 0.30 in7.6 mm
07:40 PM 47.5°F8.6°C 41.9°F5.5°C 81% 8.5 mph WSW13.7 kmh WSW 10.7 mph17.2 kmh 29.16 in987.5 mb 0.08 in2.0 mm 0.00 in0.0 mm 0.31 in7.9 mm
07:50 PM 47.3°F8.5°C 41.8°F5.4°C 81% 7.4 mph W11.9 kmh W 11.4 mph18.3 kmh 29.16 in987.5 mb 0.06 in1.5 mm 0.00 in0.0 mm 0.31 in7.9 mm
08:00 PM 47.3°F8.5°C 41.4°F5.2°C 80% 7.6 mph SW12.2 kmh SW 11.4 mph18.3 kmh 29.16 in987.5 mb 0.04 in1.0 mm 0.00 in0.0 mm 0.31 in7.9 mm
08:10 PM 47.1°F8.4°C 41.3°F5.2°C 80% 7.7 mph SW12.4 kmh SW 11.4 mph18.3 kmh 29.16 in987.5 mb 0.01 in0.3 mm 0.00 in0.0 mm 0.31 in7.9 mm
08:20 PM 47.1°F8.4°C 41.3°F5.2°C 80% 7.7 mph SSW12.4 kmh SSW 10.7 mph17.2 kmh 29.17 in987.8 mb 0.01 in0.3 mm 0.00 in0.0 mm 0.31 in7.9 mm
08:30 PM 47.1°F8.4°C 41.3°F5.2°C 80% 7.1 mph WSW11.4 kmh WSW 11.4 mph18.3 kmh 29.15 in987.1 mb 0.01 in0.3 mm 0.00 in0.0 mm 0.31 in7.9 mm
08:40 PM 47.1°F8.4°C 40.9°F4.9°C 79% 6.9 mph WSW11.1 kmh WSW 9.8 mph15.8 kmh 29.18 in988.1 mb 0.00 in0.0 mm 0.00 in0.0 mm 0.31 in7.9 mm
08:50 PM 46.8°F8.2°C 39.9°F4.4°C 77% 11.1 mph NW17.9 kmh NW 15.2 mph24.5 kmh 29.18 in988.1 mb 0.00 in0.0 mm 0.00 in0.0 mm 0.31 in7.9 mm
09:00 PM 46.2°F7.9°C 38.4°F3.6°C 74% 11.2 mph NW18.0 kmh NW 15.2 mph24.5 kmh 29.18 in988.1 mb 0.00 in0.0 mm 0.00 in0.0 mm 0.31 in7.9 mm
09:10 PM 45.9°F7.7°C 38.1°F3.4°C 74% 6.5 mph NW10.5 kmh NW 9.8 mph15.8 kmh 29.18 in988.1 mb 0.00 in0.0 mm 0.00 in0.0 mm 0.31 in7.9 mm
09:20 PM 45.3°F7.4°C 39.8°F4.3°C 81% 5.0 mph NW8.0 kmh NW 7.6 mph12.2 kmh 29.18 in988.1 mb 0.00 in0.0 mm 0.00 in0.0 mm 0.31 in7.9 mm
09:30 PM 44.8°F7.1°C 39.3°F4.1°C 81% 5.7 mph NW9.2 kmh NW 7.6 mph12.2 kmh 29.18 in988.1 mb 0.00 in0.0 mm 0.00 in0.0 mm 0.31 in7.9 mm
09:40 PM 44.6°F7.0°C 39.1°F3.9°C 81% 6.3 mph NW10.1 kmh NW 11.4 mph18.3 kmh 29.19 in988.5 mb 0.00 in0.0 mm 0.00 in0.0 mm 0.31 in7.9 mm
09:50 PM 44.8°F7.1°C 39.3°F4.1°C 81% 6.4 mph NW10.3 kmh NW 11.4 mph18.3 kmh 29.20 in988.8 mb 0.00 in0.0 mm 0.00 in0.0 mm 0.31 in7.9 mm
10:00 PM 44.8°F7.1°C 39.6°F4.2°C 82% 5.7 mph W9.2 kmh W 9.2 mph14.8 kmh 29.20 in988.8 mb 0.00 in0.0 mm 0.00 in0.0 mm 0.31 in7.9 mm
10:10 PM 44.6°F7.0°C 39.1°F3.9°C 81% 5.3 mph W8.5 kmh W 9.2 mph14.8 kmh 29.20 in988.8 mb 0.00 in0.0 mm 0.00 in0.0 mm 0.31 in7.9 mm
10:20 PM 44.4°F6.9°C 39.0°F3.9°C 81% 5.8 mph WNW9.3 kmh WNW 8.3 mph13.4 kmh 29.21 in989.2 mb 0.00 in0.0 mm 0.00 in0.0 mm 0.31 in7.9 mm
10:30 PM 44.2°F6.8°C 38.8°F3.8°C 81% 6.1 mph WNW9.8 kmh WNW 9.8 mph15.8 kmh 29.21 in989.2 mb 0.00 in0.0 mm 0.00 in0.0 mm 0.31 in7.9 mm
10:40 PM 44.1°F6.7°C 38.6°F3.7°C 81% 5.2 mph WNW8.4 kmh WNW 9.2 mph14.8 kmh 29.21 in989.2 mb 0.00 in0.0 mm 0.00 in0.0 mm 0.31 in7.9 mm
10:50 PM 43.9°F6.6°C 38.4°F3.6°C 81% 5.5 mph NW8.9 kmh NW 7.6 mph12.2 kmh 29.21 in989.2 mb 0.00 in0.0 mm 0.00 in0.0 mm 0.31 in7.9 mm
11:00 PM 43.7°F6.5°C 38.3°F3.5°C 81% 5.7 mph WNW9.2 kmh WNW 8.3 mph13.4 kmh 29.21 in989.2 mb 0.00 in0.0 mm 0.00 in0.0 mm 0.31 in7.9 mm
11:10 PM 43.7°F6.5°C 38.3°F3.5°C 81% 6.6 mph W10.6 kmh W 9.8 mph15.8 kmh 29.23 in989.8 mb 0.00 in0.0 mm 0.00 in0.0 mm 0.31 in7.9 mm
11:20 PM 43.7°F6.5°C 37.9°F3.3°C 80% 8.9 mph NW14.3 kmh NW 10.7 mph17.2 kmh 29.23 in989.8 mb 0.00 in0.0 mm 0.00 in0.0 mm 0.31 in7.9 mm
11:30 PM 43.3°F6.3°C 36.6°F2.6°C 77% 8.2 mph NW13.2 kmh NW 9.8 mph15.8 kmh 29.23 in989.8 mb 0.00 in0.0 mm 0.00 in0.0 mm 0.31 in7.9 mm
11:40 PM 43.3°F6.3°C 36.0°F2.2°C 75% 10.4 mph NW16.7 kmh NW 14.5 mph23.3 kmh 29.23 in989.8 mb 0.00 in0.0 mm 0.00 in0.0 mm 0.31 in7.9 mm
11:50 PM 43.3°F6.3°C 36.0°F2.2°C 75% 11.8 mph NW19.0 kmh NW 15.9 mph25.6 kmh 29.23 in989.8 mb 0.00 in0.0 mm 0.00 in0.0 mm 0.31 in7.9 mm